WEATHER

Warnervale Skycam

North West View

North West View

South West View

South West View

Mean Sea Level Pressure Analysis (Synoptic Chart)

Synoptic Chart

  • YSSY TAF

    TAF YSSY 161633Z 1618/1724 29005KT 9999 SCT010 FM162200 29008KT CAVOK FM170000 16010KT CAVOK FM170600 05013KT CAVOK FM171200 18010KT 9999 BKN010 FM172200 16015KT 9999 SCT015 RMK T 21 24 27 28 Q 1006 1008 1008 1008

  • YSSY METAR

    METAR YSSY 162100Z 20005KT 170V230 9999 FEW015 24/20 Q1009 RMK RF00.0/000.0 HZ

Sydney Rainfall Radar

128 km Sydney Radar

Sydney Rainfall Radar

 

512 km Sydney Radar

Sydney Rainfall Radar 512km

 

Rainfall radar and satellite images obtained from the Bureau of Meteorology. All information provided on this page is for general information and should NOT be used for flight planning.